createdAt,value
2019-02-09T00:00:18.963Z,36.76
2019-02-09T00:01:18.974Z,37.36
2019-02-09T00:02:18.934Z,37.16
2019-02-09T00:03:18.924Z,36.66
2019-02-09T00:04:18.919Z,37.68
2019-02-09T00:05:18.903Z,36.86
2019-02-09T00:06:18.900Z,37.66
2019-02-09T00:07:18.941Z,36.76
2019-02-09T00:08:18.861Z,36.98
2019-02-09T00:09:18.884Z,36.96
2019-02-09T00:10:18.847Z,36.98
2019-02-09T00:11:18.894Z,36.77
2019-02-09T00:12:18.920Z,36.46
2019-02-09T00:13:18.838Z,37.18
2019-02-09T00:14:18.793Z,37.06
2019-02-09T00:15:18.788Z,36.57
2019-02-09T00:16:18.776Z,37.27
2019-02-09T00:17:18.879Z,37.16
2019-02-09T00:18:18.849Z,36.86
2019-02-09T00:19:18.791Z,37.27
2019-02-09T00:20:18.782Z,37.26
2019-02-09T00:21:18.765Z,36.87
2019-02-09T00:22:18.803Z,37.36
2019-02-09T00:23:18.765Z,36.57
2019-02-09T00:24:18.719Z,37.26
2019-02-09T00:25:21.981Z,36.66
2019-02-09T00:26:18.713Z,36.67
2019-02-09T00:27:18.849Z,36.66
2019-02-09T00:28:18.693Z,36.98
2019-02-09T00:29:18.674Z,36.86
2019-02-09T00:30:18.690Z,36.77
2019-02-09T00:31:18.647Z,36.77
2019-02-09T00:32:18.667Z,36.47
2019-02-09T00:33:18.595Z,36.76
2019-02-09T00:34:18.623Z,36.77
2019-02-09T00:35:18.573Z,36.66
2019-02-09T00:36:18.561Z,36.46
2019-02-09T00:37:18.582Z,36.77
2019-02-09T00:38:18.545Z,36.46
2019-02-09T00:39:18.532Z,36.76
2019-02-09T00:40:18.525Z,36.66
2019-02-09T00:41:18.514Z,36.96
2019-02-09T00:42:18.536Z,36.66
2019-02-09T00:43:18.494Z,36.77
2019-02-09T00:44:18.474Z,37.07
2019-02-09T00:45:18.501Z,36.96
2019-02-09T00:46:18.487Z,36.96
2019-02-09T00:47:18.497Z,36.96
2019-02-09T00:48:18.431Z,36.76
2019-02-09T00:49:18.433Z,36.86
2019-02-09T00:50:18.410Z,36.76
2019-02-09T00:51:18.619Z,37.26
2019-02-09T00:52:18.431Z,36.47
2019-02-09T00:53:18.381Z,36.86
2019-02-09T00:54:18.364Z,36.55
2019-02-09T00:55:18.348Z,36.55
2019-02-09T00:56:18.372Z,36.86
2019-02-09T00:57:18.365Z,36.55
2019-02-09T00:58:18.327Z,36.55
2019-02-09T00:59:18.426Z,36.86
2019-02-09T01:00:18.299Z,36.46
2019-02-09T01:01:18.289Z,37.36
2019-02-09T01:02:18.302Z,36.96
2019-02-09T01:03:18.277Z,36.66
2019-02-09T01:04:18.257Z,36.57
2019-02-09T01:05:18.293Z,36.57
2019-02-09T01:06:18.256Z,36.46
2019-02-09T01:07:18.245Z,36.87
2019-02-09T01:08:18.220Z,37.16
2019-02-09T01:09:18.196Z,36.76
2019-02-09T01:10:18.188Z,36.35
2019-02-09T01:11:18.214Z,36.57
2019-02-09T01:12:18.228Z,36.55
2019-02-09T01:13:18.160Z,36.76
2019-02-09T01:14:18.176Z,36.66
2019-02-09T01:15:18.143Z,36.66
2019-02-09T01:16:18.118Z,36.86
2019-02-09T01:17:18.210Z,37.48
2019-02-09T01:18:18.142Z,36.67
2019-02-09T01:19:18.145Z,36.76
2019-02-09T01:20:18.170Z,36.86
2019-02-09T01:21:18.132Z,36.66
2019-02-09T01:22:18.162Z,36.66
2019-02-09T01:23:18.086Z,36.96
2019-02-09T01:24:18.066Z,36.66
2019-02-09T01:25:18.062Z,36.66
2019-02-09T01:26:18.044Z,36.47
2019-02-09T01:27:18.042Z,36.57
2019-02-09T01:28:17.994Z,36.76
2019-02-09T01:29:17.984Z,36.57
2019-02-09T01:30:17.983Z,36.76
2019-02-09T01:31:17.982Z,36.87
2019-02-09T01:32:17.949Z,36.67
2019-02-09T01:33:17.942Z,37.56
2019-02-09T01:34:17.940Z,36.55
2019-02-09T01:35:17.914Z,36.57
2019-02-09T01:36:17.942Z,36.77
2019-02-09T01:37:17.888Z,36.55
2019-02-09T01:38:17.929Z,36.87
2019-02-09T01:39:17.869Z,36.57
2019-02-09T01:40:17.859Z,36.86
2019-02-09T01:41:17.864Z,36.66
2019-02-09T01:42:17.838Z,36.77
2019-02-09T01:43:17.865Z,37.18
2019-02-09T01:44:17.814Z,36.55
2019-02-09T01:45:17.809Z,36.76
2019-02-09T01:46:17.815Z,36.66
2019-02-09T01:47:17.782Z,36.57
2019-02-09T01:48:17.800Z,37.38
2019-02-09T01:49:17.868Z,36.67
2019-02-09T01:50:17.758Z,36.57
2019-02-09T01:51:17.796Z,37.78
2019-02-09T01:52:17.729Z,36.76
2019-02-09T01:53:17.775Z,37.18
2019-02-09T01:54:18.204Z,36.46
2019-02-09T01:55:17.698Z,36.55
2019-02-09T01:56:17.687Z,36.66
2019-02-09T01:57:17.677Z,37.18
2019-02-09T01:58:17.691Z,37.26
2019-02-09T01:59:17.651Z,37.18
2019-02-09T02:00:17.650Z,37.18
2019-02-09T02:01:17.643Z,36.98
2019-02-09T02:02:17.623Z,37.16
2019-02-09T02:03:17.645Z,37.78
2019-02-09T02:04:17.607Z,37.48
2019-02-09T02:05:17.608Z,37.68
2019-02-09T02:06:17.582Z,37.56
2019-02-09T02:07:17.607Z,37.56
2019-02-09T02:08:17.576Z,37.38
2019-02-09T02:09:17.551Z,37.18
2019-02-09T02:10:17.525Z,37.06
2019-02-09T02:11:17.525Z,36.55
2019-02-09T02:12:17.507Z,37.68
2019-02-09T02:13:17.529Z,37.18
2019-02-09T02:14:17.485Z,37.36
2019-02-09T02:15:17.495Z,37.98
2019-02-09T02:16:17.518Z,37.38
2019-02-09T02:17:17.488Z,38.18
2019-02-09T02:18:17.533Z,37.18
2019-02-09T02:19:17.473Z,37.38
2019-02-09T02:20:17.452Z,37.27
2019-02-09T02:21:17.452Z,38.07
2019-02-09T02:22:17.435Z,38.07
2019-02-09T02:23:17.537Z,37.16
2019-02-09T02:24:17.454Z,37.46
2019-02-09T02:25:17.405Z,37.27
2019-02-09T02:26:17.389Z,37.56
2019-02-09T02:27:17.385Z,37.48
2019-02-09T02:28:17.371Z,37.18
2019-02-09T02:29:17.328Z,37.26
2019-02-09T02:30:22.648Z,38.17
2019-02-09T02:31:17.301Z,37.88
2019-02-09T02:32:17.309Z,37.68
2019-02-09T02:33:17.330Z,38.18
2019-02-09T02:34:17.274Z,38.18
2019-02-09T02:35:17.263Z,37.18
2019-02-09T02:36:17.246Z,37.26
2019-02-09T02:37:17.245Z,37.76
2019-02-09T02:38:17.330Z,37.96
2019-02-09T02:39:17.292Z,37.96
2019-02-09T02:40:17.209Z,37.78
2019-02-09T02:41:17.221Z,37.96
2019-02-09T02:42:17.184Z,37.96
2019-02-09T02:43:17.278Z,37.48
2019-02-09T02:44:17.182Z,37.78
2019-02-09T02:45:17.169Z,37.78
2019-02-09T02:46:17.142Z,37.66
2019-02-09T02:47:17.135Z,37.78
2019-02-09T02:48:17.159Z,37.66
2019-02-09T02:49:17.120Z,37.76
2019-02-09T02:50:17.103Z,37.68
2019-02-09T02:51:17.101Z,38.07
2019-02-09T02:52:17.078Z,37.98
2019-02-09T02:53:17.154Z,37.56
2019-02-09T02:54:17.056Z,37.38
2019-02-09T02:55:17.057Z,37.38
2019-02-09T02:56:17.030Z,37.78
2019-02-09T02:57:17.038Z,37.58
2019-02-09T02:58:17.046Z,37.98
2019-02-09T02:59:17.050Z,37.78
2019-02-09T03:00:17.028Z,37.38
2019-02-09T03:01:17.087Z,37.48
2019-02-09T03:02:16.981Z,37.58
2019-02-09T03:03:16.987Z,38.08
2019-02-09T03:04:16.951Z,38.08
2019-02-09T03:05:16.960Z,38.28
2019-02-09T03:06:16.936Z,38.18
2019-02-09T03:07:16.924Z,38.08
2019-02-09T03:08:16.909Z,37.27
2019-02-09T03:09:16.892Z,37.27
2019-02-09T03:10:16.880Z,38.48
2019-02-09T03:11:16.886Z,38.18
2019-02-09T03:12:16.870Z,38.28
2019-02-09T03:13:16.847Z,37.58
2019-02-09T03:14:16.843Z,37.58
2019-02-09T03:15:16.871Z,37.98
2019-02-09T03:16:16.815Z,37.48
2019-02-09T03:17:16.849Z,37.98
2019-02-09T03:18:16.857Z,37.27
2019-02-09T03:19:19.118Z,37.98
2019-02-09T03:20:16.842Z,37.78
2019-02-09T03:21:16.807Z,37.88
2019-02-09T03:22:16.789Z,38.59
2019-02-09T03:23:16.777Z,37.88
2019-02-09T03:24:16.779Z,38.00
2019-02-09T03:25:16.762Z,37.80
2019-02-09T03:26:16.735Z,38.20
2019-02-09T03:27:16.799Z,38.40
2019-02-09T03:28:16.701Z,37.88
2019-02-09T03:29:16.681Z,38.40
2019-02-09T03:30:16.667Z,38.30
2019-02-09T03:31:16.646Z,37.68
2019-02-09T03:32:16.636Z,37.60
2019-02-09T03:33:16.639Z,37.90
2019-02-09T03:34:16.644Z,37.90
2019-02-09T03:35:16.614Z,37.90
2019-02-09T03:36:16.589Z,38.20
2019-02-09T03:37:16.580Z,38.59
2019-02-09T03:38:16.634Z,38.20
2019-02-09T03:39:16.593Z,38.30
2019-02-09T03:40:16.575Z,38.40
2019-02-09T03:41:16.542Z,38.30
2019-02-09T03:42:16.523Z,38.20
2019-02-09T03:43:16.520Z,38.60
2019-02-09T03:44:16.543Z,38.00
2019-02-09T03:45:16.496Z,38.00
2019-02-09T03:46:16.481Z,38.00
2019-02-09T03:47:16.466Z,37.90
2019-02-09T03:48:16.466Z,38.00
2019-02-09T03:49:16.478Z,37.90
2019-02-09T03:50:16.474Z,37.90
2019-02-09T03:51:16.431Z,37.90
2019-02-09T03:52:16.419Z,37.80
2019-02-09T03:53:16.447Z,37.90
2019-02-09T03:54:16.561Z,37.80
2019-02-09T03:55:16.416Z,37.90
2019-02-09T03:56:16.387Z,37.90
2019-02-09T03:57:16.376Z,37.70
2019-02-09T03:58:16.358Z,37.80
2019-02-09T03:59:16.365Z,37.90
2019-02-09T04:00:17.687Z,37.70
2019-02-09T04:01:16.354Z,37.90
2019-02-09T04:02:16.301Z,37.90
2019-02-09T04:03:16.340Z,37.80
2019-02-09T04:04:16.313Z,37.90
2019-02-09T04:05:16.275Z,37.90
2019-02-09T04:06:16.284Z,37.70
2019-02-09T04:07:16.257Z,37.90
2019-02-09T04:08:16.275Z,37.70
2019-02-09T04:09:16.265Z,37.90
2019-02-09T04:10:16.237Z,38.00
2019-02-09T04:11:16.215Z,37.90
2019-02-09T04:12:16.205Z,37.80
2019-02-09T04:13:16.204Z,37.90
2019-02-09T04:14:16.205Z,37.90
2019-02-09T04:15:16.205Z,37.90
2019-02-09T04:16:16.168Z,37.70
2019-02-09T04:17:16.229Z,37.90
2019-02-09T04:18:16.169Z,37.70
2019-02-09T04:19:16.243Z,37.90
2019-02-09T04:20:16.154Z,38.00
2019-02-09T04:21:16.166Z,37.70
2019-02-09T04:22:16.125Z,37.70
2019-02-09T04:23:16.113Z,37.90
2019-02-09T04:24:16.183Z,38.12
2019-02-09T04:25:16.099Z,37.90
2019-02-09T04:26:16.161Z,37.70
2019-02-09T04:27:16.070Z,37.80
2019-02-09T04:28:16.046Z,37.82
2019-02-09T04:29:16.049Z,37.71
2019-02-09T04:30:16.006Z,38.00
2019-02-09T04:31:16.013Z,37.80
2019-02-09T04:32:15.976Z,37.70
2019-02-09T04:33:15.993Z,37.71
2019-02-09T04:34:16.030Z,37.92
2019-02-09T04:35:15.980Z,37.70
2019-02-09T04:36:15.949Z,37.71
2019-02-09T04:37:15.928Z,37.70
2019-02-09T04:38:15.946Z,37.70
2019-02-09T04:39:15.947Z,38.30
2019-02-09T04:40:15.895Z,37.71
2019-02-09T04:41:15.885Z,37.71
2019-02-09T04:42:15.900Z,37.71
2019-02-09T04:43:15.856Z,37.70
2019-02-09T04:44:15.889Z,38.22
2019-02-09T04:45:15.843Z,38.20
2019-02-09T04:46:15.824Z,38.30
2019-02-09T04:47:15.838Z,38.32
2019-02-09T04:48:15.815Z,38.42
2019-02-09T04:49:15.835Z,37.62
2019-02-09T04:50:15.843Z,38.50
2019-02-09T04:51:15.778Z,38.50
2019-02-09T04:52:15.762Z,38.40
2019-02-09T04:53:15.749Z,38.52
2019-02-09T04:54:15.742Z,38.60
2019-02-09T04:55:15.751Z,38.62
2019-02-09T04:56:15.732Z,38.42
2019-02-09T04:57:15.780Z,38.42
2019-02-09T04:58:15.716Z,38.62
2019-02-09T04:59:15.677Z,38.42
2019-02-09T05:00:15.712Z,38.73
2019-02-09T05:01:15.659Z,38.22
2019-02-09T05:02:15.672Z,38.73
2019-02-09T05:03:15.638Z,38.93
2019-02-09T05:04:15.635Z,38.93
2019-02-09T05:05:15.649Z,38.93
2019-02-09T05:06:15.701Z,38.10
2019-02-09T05:07:15.594Z,39.03
2019-02-09T05:08:15.781Z,38.93
2019-02-09T05:09:15.575Z,38.93
2019-02-09T05:10:15.596Z,39.03
2019-02-09T05:11:15.573Z,39.03
2019-02-09T05:12:15.553Z,38.42
2019-02-09T05:13:15.555Z,38.62
2019-02-09T05:14:15.524Z,38.12
2019-02-09T05:15:15.536Z,38.82
2019-02-09T05:16:15.722Z,38.12
2019-02-09T05:17:15.527Z,38.22
2019-02-09T05:18:15.525Z,38.93
2019-02-09T05:19:15.500Z,38.42
2019-02-09T05:20:15.556Z,39.03
2019-02-09T05:21:15.499Z,38.93
2019-02-09T05:22:15.483Z,38.62
2019-02-09T05:23:15.999Z,38.42
2019-02-09T05:24:15.449Z,38.42
2019-02-09T05:25:15.499Z,38.62
2019-02-09T05:26:15.445Z,38.73
2019-02-09T05:27:15.782Z,39.03
2019-02-09T05:28:15.367Z,38.93
2019-02-09T05:29:15.376Z,39.03
2019-02-09T05:30:15.392Z,38.52
2019-02-09T05:31:22.918Z,38.12
2019-02-09T05:32:15.321Z,39.13
2019-02-09T05:33:15.326Z,38.62
2019-02-09T05:34:15.315Z,38.93
2019-02-09T05:35:15.341Z,38.82
2019-02-09T05:36:15.303Z,38.73
2019-02-09T05:37:15.339Z,38.73
2019-02-09T05:38:15.271Z,39.03
2019-02-09T05:39:15.249Z,38.12
2019-02-09T05:40:15.309Z,38.73
2019-02-09T05:41:15.263Z,38.73
2019-02-09T05:42:15.231Z,38.73
2019-02-09T05:43:15.211Z,39.13
2019-02-09T05:44:15.238Z,38.73
2019-02-09T05:45:15.237Z,38.93
2019-02-09T05:46:15.189Z,38.73
2019-02-09T05:47:15.187Z,38.22
2019-02-09T05:48:15.156Z,38.73
2019-02-09T05:49:15.137Z,38.82
2019-02-09T05:50:15.364Z,38.71
2019-02-09T05:51:15.313Z,38.50
2019-02-09T05:52:15.114Z,38.62
2019-02-09T05:53:15.095Z,38.42
2019-02-09T05:54:15.158Z,38.50
2019-02-09T05:55:15.105Z,37.62
2019-02-09T05:56:15.067Z,37.62
2019-02-09T05:57:15.053Z,38.32
2019-02-09T05:58:15.038Z,38.42
2019-02-09T05:59:15.256Z,38.52
2019-02-09T06:00:15.050Z,37.62
2019-02-09T06:01:15.017Z,38.62
2019-02-09T06:02:15.012Z,38.93
2019-02-09T06:03:14.993Z,38.73
2019-02-09T06:04:14.975Z,38.22
2019-02-09T06:05:14.989Z,38.22
2019-02-09T06:06:14.966Z,37.62
2019-02-09T06:07:14.947Z,37.82
2019-02-09T06:08:14.938Z,38.22
2019-02-09T06:09:14.923Z,38.22
2019-02-09T06:10:14.910Z,37.82
2019-02-09T06:11:14.898Z,37.71
2019-02-09T06:12:14.905Z,38.32
2019-02-09T06:13:14.883Z,37.92
2019-02-09T06:14:14.869Z,38.12
2019-02-09T06:15:14.857Z,37.51
2019-02-09T06:16:14.855Z,37.71
2019-02-09T06:17:14.860Z,37.92
2019-02-09T06:18:14.852Z,37.51
2019-02-09T06:19:14.847Z,38.12
2019-02-09T06:20:14.843Z,37.82
2019-02-09T06:21:14.900Z,37.51
2019-02-09T06:22:14.826Z,37.71
2019-02-09T06:23:14.793Z,37.82
2019-02-09T06:24:14.826Z,37.51
2019-02-09T06:25:14.867Z,38.02
2019-02-09T06:26:14.838Z,37.51
2019-02-09T06:27:14.774Z,37.82
2019-02-09T06:28:14.719Z,37.71
2019-02-09T06:29:14.706Z,38.32
2019-02-09T06:30:14.717Z,38.02
2019-02-09T06:31:14.707Z,38.22
2019-02-09T06:32:14.664Z,37.71
2019-02-09T06:33:14.673Z,38.22
2019-02-09T06:34:14.665Z,38.02
2019-02-09T06:35:14.639Z,38.02
2019-02-09T06:36:14.656Z,38.62
2019-02-09T06:37:14.621Z,37.71
2019-02-09T06:38:14.601Z,38.22
2019-02-09T06:39:14.607Z,38.73
2019-02-09T06:40:16.673Z,38.62
2019-02-09T06:41:14.599Z,38.02
2019-02-09T06:42:14.565Z,38.52
2019-02-09T06:43:14.661Z,38.32
2019-02-09T06:44:14.540Z,38.62
2019-02-09T06:45:14.541Z,37.82
2019-02-09T06:46:14.556Z,37.62
2019-02-09T06:47:14.530Z,38.22
2019-02-09T06:48:14.494Z,37.71
2019-02-09T06:49:14.497Z,38.42
2019-02-09T06:50:14.469Z,37.53
2019-02-09T06:51:14.503Z,38.22
2019-02-09T06:52:14.448Z,38.32
2019-02-09T06:53:14.437Z,38.02
2019-02-09T06:54:14.429Z,38.22
2019-02-09T06:55:14.464Z,38.82
2019-02-09T06:56:14.430Z,38.32
2019-02-09T06:57:14.420Z,38.62
2019-02-09T06:58:14.388Z,38.73
2019-02-09T06:59:14.374Z,38.32
2019-02-09T07:00:14.362Z,38.73
2019-02-09T07:01:14.398Z,38.62
2019-02-09T07:02:14.351Z,38.93
2019-02-09T07:03:14.354Z,38.42
2019-02-09T07:04:14.309Z,38.22
2019-02-09T07:05:14.321Z,38.22
2019-02-09T07:06:14.342Z,38.93
2019-02-09T07:07:14.302Z,38.22
2019-02-09T07:08:14.270Z,38.62
2019-02-09T07:09:14.265Z,38.42
2019-02-09T07:10:14.258Z,38.93
2019-02-09T07:11:14.283Z,38.73
2019-02-09T07:12:14.257Z,38.93
2019-02-09T07:13:14.226Z,37.82
2019-02-09T07:14:14.223Z,38.42
2019-02-09T07:15:14.197Z,38.62
2019-02-09T07:16:14.230Z,37.92
2019-02-09T07:17:14.235Z,38.32
2019-02-09T07:18:14.201Z,38.32
2019-02-09T07:19:14.196Z,38.62
2019-02-09T07:20:14.173Z,38.22
2019-02-09T07:21:14.225Z,38.62
2019-02-09T07:22:14.158Z,38.52
2019-02-09T07:23:14.171Z,38.42
2019-02-09T07:24:14.119Z,37.71
2019-02-09T07:25:14.152Z,38.22
2019-02-09T07:26:14.182Z,38.42
2019-02-09T07:27:14.109Z,38.24
2019-02-09T07:28:14.053Z,38.52
2019-02-09T07:29:14.037Z,37.71
2019-02-09T07:30:14.059Z,38.32
2019-02-09T07:31:14.046Z,37.71
2019-02-09T07:32:14.021Z,37.71
2019-02-09T07:33:14.003Z,38.42
2019-02-09T07:34:13.988Z,38.73
2019-02-09T07:35:13.990Z,38.62
2019-02-09T07:36:13.981Z,38.71
2019-02-09T07:37:13.960Z,38.32
2019-02-09T07:38:13.957Z,38.40
2019-02-09T07:39:13.947Z,38.50
2019-02-09T07:40:13.976Z,38.30
2019-02-09T07:41:13.946Z,38.40
2019-02-09T07:42:13.911Z,38.00
2019-02-09T07:43:13.891Z,38.60
2019-02-09T07:44:13.884Z,38.30
2019-02-09T07:45:13.864Z,38.30
2019-02-09T07:46:13.853Z,38.39
2019-02-09T07:47:13.882Z,38.18
2019-02-09T07:48:13.849Z,37.78
2019-02-09T07:49:13.861Z,37.68
2019-02-09T07:50:13.830Z,37.68
2019-02-09T07:51:13.797Z,37.87
2019-02-09T07:52:13.815Z,38.57
2019-02-09T07:53:13.778Z,38.37
2019-02-09T07:54:13.787Z,38.07
2019-02-09T07:55:13.762Z,38.17
2019-02-09T07:56:13.749Z,37.96
2019-02-09T07:57:13.777Z,38.17
2019-02-09T07:58:13.732Z,37.95
2019-02-09T07:59:13.718Z,37.45
2019-02-09T08:00:13.722Z,37.34
2019-02-09T08:01:13.695Z,37.95
2019-02-09T08:02:13.726Z,37.74
2019-02-09T08:03:13.685Z,37.52
2019-02-09T08:04:13.672Z,37.83
2019-02-09T08:05:13.647Z,37.61
2019-02-09T08:06:13.649Z,37.10
2019-02-09T08:07:13.657Z,36.90
2019-02-09T08:08:13.626Z,36.70
2019-02-09T08:09:13.647Z,36.70
2019-02-09T08:10:13.591Z,36.80
2019-02-09T08:11:13.585Z,36.18
2019-02-09T08:12:13.603Z,36.49
2019-02-09T08:13:13.566Z,36.77
2019-02-09T08:14:13.545Z,36.58
2019-02-09T08:15:13.537Z,36.58
2019-02-09T08:16:13.535Z,36.47
2019-02-09T08:17:13.625Z,36.99
2019-02-09T08:18:13.542Z,36.89
2019-02-09T08:19:13.543Z,36.47
2019-02-09T08:20:13.521Z,36.47
2019-02-09T08:21:13.503Z,36.77
2019-02-09T08:22:13.565Z,36.57
2019-02-09T08:23:13.485Z,36.36
2019-02-09T08:24:13.471Z,36.25
2019-02-09T08:25:13.462Z,36.15
2019-02-09T08:26:13.453Z,34.94
2019-02-09T08:27:13.495Z,35.23
2019-02-09T08:28:13.406Z,35.23
2019-02-09T08:29:13.396Z,35.43
2019-02-09T08:30:13.389Z,35.23
2019-02-09T08:31:13.367Z,35.44
2019-02-09T08:32:13.391Z,35.23
2019-02-09T08:33:13.348Z,35.43
2019-02-09T08:34:13.338Z,35.33
2019-02-09T08:35:13.325Z,35.31
2019-02-09T08:36:13.325Z,35.41
2019-02-09T08:37:13.343Z,35.41
2019-02-09T08:38:13.294Z,35.31
2019-02-09T08:39:13.286Z,35.11
2019-02-09T08:40:13.272Z,35.11
2019-02-09T08:41:13.254Z,35.10
2019-02-09T08:42:13.307Z,35.19
2019-02-09T08:43:13.264Z,34.99
2019-02-09T08:44:13.255Z,35.30
2019-02-09T08:45:13.250Z,35.39
2019-02-09T08:46:13.202Z,35.39
2019-02-09T08:47:13.223Z,35.10
2019-02-09T08:48:13.189Z,35.19
2019-02-09T08:49:13.169Z,35.10
2019-02-09T08:50:13.182Z,34.69
2019-02-09T08:51:13.199Z,35.68
2019-02-09T08:52:13.237Z,34.59
2019-02-09T08:53:13.130Z,35.10
2019-02-09T08:54:13.160Z,34.98
2019-02-09T08:55:13.116Z,34.58
2019-02-09T08:56:13.106Z,35.18
2019-02-09T08:57:13.130Z,34.28
2019-02-09T08:58:13.137Z,34.28
2019-02-09T08:59:13.083Z,34.38
2019-02-09T09:00:13.065Z,34.38
2019-02-09T09:01:13.041Z,34.58
2019-02-09T09:02:20.231Z,34.28
2019-02-09T09:03:13.036Z,34.67
2019-02-09T09:04:13.013Z,34.26
2019-02-09T09:05:13.009Z,34.36
2019-02-09T09:06:12.986Z,34.56
2019-02-09T09:07:13.004Z,33.26
2019-02-09T09:08:12.983Z,34.26
2019-02-09T09:09:12.971Z,33.36
2019-02-09T09:10:12.951Z,34.26
2019-02-09T09:11:12.944Z,34.26
2019-02-09T09:12:12.926Z,33.26
2019-02-09T09:13:12.919Z,33.46
2019-02-09T09:14:12.905Z,33.56
2019-02-09T09:15:12.902Z,33.66
2019-02-09T09:16:12.881Z,33.56
2019-02-09T09:17:13.012Z,33.46
2019-02-09T09:18:12.908Z,33.56
2019-02-09T09:19:12.889Z,33.54
2019-02-09T09:20:12.878Z,33.64
2019-02-09T09:21:12.866Z,33.44
2019-02-09T09:22:12.850Z,33.44
2019-02-09T09:23:12.842Z,33.44
2019-02-09T09:24:12.835Z,33.74
2019-02-09T09:25:12.837Z,34.05
2019-02-09T09:26:12.810Z,33.74
2019-02-09T09:27:12.796Z,33.74
2019-02-09T09:28:12.773Z,33.14
2019-02-09T09:29:12.742Z,33.94
2019-02-09T09:30:12.725Z,33.64
2019-02-09T09:31:12.736Z,34.14
2019-02-09T09:32:12.756Z,33.04
2019-02-09T09:33:12.745Z,33.64
2019-02-09T09:34:12.715Z,32.94
2019-02-09T09:35:12.675Z,32.84
2019-02-09T09:36:12.660Z,33.04
2019-02-09T09:37:12.654Z,33.04
2019-02-09T09:38:12.677Z,32.84
2019-02-09T09:39:13.833Z,33.14
2019-02-09T09:40:12.709Z,33.04
2019-02-09T09:41:12.741Z,33.04
2019-02-09T09:42:12.594Z,33.12
2019-02-09T09:43:12.638Z,33.14
2019-02-09T09:44:12.591Z,32.74
2019-02-09T09:45:12.569Z,32.93
2019-02-09T09:46:12.565Z,33.04
2019-02-09T09:47:12.555Z,32.82
2019-02-09T09:48:12.575Z,32.93
2019-02-09T09:49:13.980Z,33.03
2019-02-09T09:50:12.577Z,32.73
2019-02-09T09:51:12.515Z,32.84
2019-02-09T09:52:12.489Z,33.33
2019-02-09T09:53:12.503Z,32.53
2019-02-09T09:54:12.478Z,33.33
2019-02-09T09:55:12.480Z,33.33
2019-02-09T09:56:12.454Z,32.93
2019-02-09T09:57:12.453Z,32.53
2019-02-09T09:58:12.473Z,32.93
2019-02-09T09:59:12.423Z,32.53
2019-02-09T10:00:12.406Z,32.93
2019-02-09T10:01:12.396Z,32.82
2019-02-09T10:02:12.387Z,32.82
2019-02-09T10:03:12.443Z,32.62
2019-02-09T10:04:12.369Z,32.93
2019-02-09T10:05:12.376Z,32.73
2019-02-09T10:06:12.352Z,32.62
2019-02-09T10:07:12.333Z,32.41
2019-02-09T10:08:12.405Z,32.61
2019-02-09T10:09:12.320Z,33.23
2019-02-09T10:10:12.303Z,32.91
2019-02-09T10:11:12.297Z,32.81
2019-02-09T10:12:12.280Z,33.03
2019-02-09T10:13:12.327Z,32.81
2019-02-09T10:14:12.253Z,33.21
2019-02-09T10:15:12.252Z,32.81
2019-02-09T10:16:12.236Z,32.81
2019-02-09T10:17:12.270Z,32.81
2019-02-09T10:18:12.360Z,32.81
2019-02-09T10:19:12.264Z,32.81
2019-02-09T10:20:12.284Z,32.91
2019-02-09T10:21:12.235Z,32.71
2019-02-09T10:22:12.221Z,33.01
2019-02-09T10:23:12.253Z,32.59
2019-02-09T10:24:12.180Z,32.51
2019-02-09T10:25:12.168Z,32.51
2019-02-09T10:26:12.160Z,32.29
2019-02-09T10:27:12.153Z,32.50
2019-02-09T10:28:12.141Z,32.50
2019-02-09T10:29:12.109Z,32.29
2019-02-09T10:30:12.081Z,32.38
2019-02-09T10:31:12.079Z,32.29
2019-02-09T10:32:12.064Z,32.50
2019-02-09T10:33:12.100Z,32.68
2019-02-09T10:34:12.037Z,31.58
2019-02-09T10:35:12.073Z,31.78
2019-02-09T10:36:12.025Z,31.57
2019-02-09T10:37:12.017Z,31.98
2019-02-09T10:38:13.300Z,32.28
2019-02-09T10:39:11.987Z,31.67
2019-02-09T10:40:11.994Z,31.46
2019-02-09T10:41:12.013Z,32.08
2019-02-09T10:42:11.947Z,32.08
2019-02-09T10:43:11.946Z,31.68
2019-02-09T10:44:11.941Z,32.38
2019-02-09T10:45:11.925Z,31.88
2019-02-09T10:46:11.936Z,32.48
2019-02-09T10:47:11.904Z,32.68
2019-02-09T10:48:11.893Z,32.48
2019-02-09T10:49:11.892Z,32.68
2019-02-09T10:50:11.866Z,32.78
2019-02-09T10:51:11.845Z,32.48
2019-02-09T10:52:11.856Z,32.68
2019-02-09T10:53:11.845Z,32.68
2019-02-09T10:54:11.844Z,32.06
2019-02-09T10:55:11.817Z,32.17
2019-02-09T10:56:11.792Z,32.06
2019-02-09T10:57:11.794Z,31.87
2019-02-09T10:58:11.782Z,31.57
2019-02-09T10:59:11.813Z,32.38
2019-02-09T11:00:11.766Z,31.87
2019-02-09T11:01:11.751Z,31.96
2019-02-09T11:02:11.739Z,31.67
2019-02-09T11:03:11.758Z,31.67
2019-02-09T11:04:11.750Z,31.57
2019-02-09T11:05:11.707Z,31.76
2019-02-09T11:06:11.737Z,31.67
2019-02-09T11:07:11.684Z,31.46
2019-02-09T11:08:11.667Z,31.46
2019-02-09T11:09:11.695Z,31.67
2019-02-09T11:10:11.650Z,31.67
2019-02-09T11:11:11.643Z,31.67
2019-02-09T11:12:11.624Z,31.57
2019-02-09T11:13:11.629Z,31.57
2019-02-09T11:14:11.629Z,31.76
2019-02-09T11:15:11.597Z,31.67
2019-02-09T11:16:11.598Z,31.46
2019-02-09T11:17:11.606Z,31.57
2019-02-09T11:18:11.637Z,31.58
2019-02-09T11:19:11.654Z,31.67
2019-02-09T11:20:11.646Z,32.17
2019-02-09T11:21:11.580Z,31.48
2019-02-09T11:22:11.569Z,32.36
2019-02-09T11:23:11.545Z,31.98
2019-02-09T11:24:11.604Z,32.48
2019-02-09T11:25:11.534Z,32.68
2019-02-09T11:26:11.524Z,32.58
2019-02-09T11:27:11.514Z,32.68
2019-02-09T11:28:11.460Z,32.78
2019-02-09T11:29:11.472Z,32.28
2019-02-09T11:30:11.442Z,32.28
2019-02-09T11:31:11.442Z,32.88
2019-02-09T11:32:11.415Z,32.68
2019-02-09T11:33:11.410Z,32.28
2019-02-09T11:34:11.413Z,32.58
2019-02-09T11:35:11.395Z,32.78
2019-02-09T11:36:11.360Z,32.79
2019-02-09T11:37:11.460Z,32.08
2019-02-09T11:38:11.364Z,32.09
2019-02-09T11:39:11.363Z,32.48
2019-02-09T11:40:11.339Z,32.48
2019-02-09T11:41:11.309Z,31.99
2019-02-09T11:42:11.299Z,32.18
2019-02-09T11:43:11.289Z,32.28
2019-02-09T11:44:12.316Z,32.48
2019-02-09T11:45:11.285Z,32.48
2019-02-09T11:46:11.262Z,32.50
2019-02-09T11:47:11.253Z,32.58
2019-02-09T11:48:11.704Z,32.70
2019-02-09T11:49:11.334Z,32.58
2019-02-09T11:50:11.222Z,32.40
2019-02-09T11:51:11.225Z,31.79
2019-02-09T11:52:11.192Z,32.28
2019-02-09T11:53:11.194Z,31.49
2019-02-09T11:54:11.215Z,31.99
2019-02-09T11:55:11.165Z,32.28
2019-02-09T11:56:11.151Z,32.28
2019-02-09T11:57:11.152Z,32.08
2019-02-09T11:58:11.138Z,31.58
2019-02-09T11:59:11.142Z,31.78
2019-02-09T12:00:11.425Z,31.68
2019-02-09T12:01:11.123Z,31.98
2019-02-09T12:02:11.143Z,31.78
2019-02-09T12:03:15.759Z,31.68
2019-02-09T12:04:12.534Z,31.70
2019-02-09T12:05:11.066Z,32.08
2019-02-09T12:06:11.063Z,31.99
2019-02-09T12:07:11.035Z,31.99
2019-02-09T12:08:11.023Z,32.58
2019-02-09T12:09:11.046Z,31.78
2019-02-09T12:10:11.007Z,31.98
2019-02-09T12:11:10.988Z,31.88
2019-02-09T12:12:10.979Z,32.08
2019-02-09T12:13:10.962Z,31.48
2019-02-09T12:14:11.010Z,31.68
2019-02-09T12:15:10.962Z,32.08
2019-02-09T12:16:10.950Z,32.08
2019-02-09T12:17:10.983Z,32.08
2019-02-09T12:18:10.968Z,31.58
2019-02-09T12:19:10.932Z,32.08
2019-02-09T12:20:10.945Z,32.08
2019-02-09T12:21:10.943Z,31.98
2019-02-09T12:22:10.920Z,32.38
2019-02-09T12:23:10.906Z,32.08
2019-02-09T12:24:12.076Z,31.48
2019-02-09T12:25:11.046Z,32.40
2019-02-09T12:26:10.872Z,32.79
2019-02-09T12:27:10.858Z,32.70
2019-02-09T12:28:10.820Z,32.50
2019-02-09T12:29:10.798Z,31.99
2019-02-09T12:30:10.803Z,31.99
2019-02-09T12:31:10.927Z,31.90
2019-02-09T12:32:10.756Z,31.90
2019-02-09T12:33:10.764Z,31.70
2019-02-09T12:34:10.737Z,31.79
2019-02-09T12:35:10.748Z,31.70
2019-02-09T12:36:10.731Z,31.99
2019-02-09T12:37:10.761Z,32.20
2019-02-09T12:38:10.701Z,32.20
2019-02-09T12:39:10.695Z,32.29
2019-02-09T12:40:10.703Z,32.29
2019-02-09T12:41:10.669Z,32.71
2019-02-09T12:42:11.443Z,32.20
2019-02-09T12:43:10.638Z,32.40
2019-02-09T12:44:10.668Z,32.40
2019-02-09T12:45:10.664Z,32.20
2019-02-09T12:46:10.620Z,32.70
2019-02-09T12:47:10.604Z,32.29
2019-02-09T12:48:10.613Z,32.29
2019-02-09T12:49:10.571Z,32.51
2019-02-09T12:50:10.601Z,32.51
2019-02-09T12:51:10.560Z,32.01
2019-02-09T12:52:10.551Z,32.51